createdAt,value
2023-06-06T00:05:23.753Z,2.7
2023-06-06T00:11:08.096Z,3.6
2023-06-06T00:16:53.453Z,3.5
2023-06-06T00:22:37.717Z,3.3
2023-06-06T00:28:22.099Z,4.5
2023-06-06T00:34:06.615Z,3.6
2023-06-06T00:39:51.892Z,3.1
2023-06-06T00:45:36.224Z,2.8
2023-06-06T00:51:21.008Z,3.2
2023-06-06T00:57:06.024Z,3.1
2023-06-06T01:02:51.060Z,3.7
2023-06-06T01:08:36.298Z,4.3
2023-06-06T01:14:26.248Z,3.4
2023-06-06T01:20:11.191Z,3.7
2023-06-06T01:25:55.593Z,3.3
2023-06-06T01:31:44.957Z,3.5
2023-06-06T01:37:34.532Z,3.5
2023-06-06T01:43:19.562Z,3.7
2023-06-06T01:49:04.041Z,3.4
2023-06-06T01:54:48.471Z,3.1
2023-06-06T02:00:32.681Z,3.2
2023-06-06T02:06:16.863Z,3.4
2023-06-06T02:12:01.114Z,3.2
2023-06-06T02:17:45.722Z,3.5
2023-06-06T02:23:30.228Z,3.9
2023-06-06T02:29:14.412Z,4.3
2023-06-06T02:34:58.625Z,3.3
2023-06-06T02:40:43.038Z,3.4
2023-06-06T02:46:28.246Z,3.6
2023-06-06T02:52:12.768Z,3.3
2023-06-06T02:57:57.373Z,4.4
2023-06-06T03:03:41.896Z,3.6
2023-06-06T03:09:26.161Z,3.9
2023-06-06T03:15:11.101Z,4.2
2023-06-06T03:20:55.435Z,4.8
2023-06-06T03:26:39.688Z,3.7
2023-06-06T03:32:24.489Z,5.9
2023-06-06T03:38:09.140Z,3.8
2023-06-06T03:43:53.465Z,3.6
2023-06-06T03:49:37.699Z,4.6
2023-06-06T03:55:22.115Z,4
2023-06-06T04:01:06.307Z,5.1
2023-06-06T04:06:50.878Z,3.7
2023-06-06T04:12:35.076Z,4.6
2023-06-06T04:18:19.257Z,4.3
2023-06-06T04:24:03.727Z,3.5
2023-06-06T04:29:48.490Z,4
2023-06-06T04:35:32.741Z,4.7
2023-06-06T04:41:51.810Z,12.1
2023-06-06T04:47:21.317Z,11.4
2023-06-06T04:53:05.654Z,11.2
2023-06-06T04:58:49.936Z,9.6
2023-06-06T05:04:34.373Z,8.8
2023-06-06T05:10:18.637Z,8.8
2023-06-06T05:16:03.267Z,12.6
2023-06-06T05:21:47.677Z,12.9
2023-06-06T05:27:31.924Z,7.3
2023-06-06T05:33:16.153Z,6.2
2023-06-06T05:39:00.812Z,6.4
2023-06-06T05:44:45.165Z,8.3
2023-06-06T05:50:29.643Z,7.1
2023-06-06T05:56:14.371Z,7
2023-06-06T06:01:58.814Z,6.9
2023-06-06T06:07:44.195Z,6.1
2023-06-06T06:13:28.277Z,6.2
2023-06-06T06:19:12.502Z,8.2
2023-06-06T06:24:56.710Z,5.7
2023-06-06T06:30:41.002Z,5.3
2023-06-06T06:36:25.510Z,6.1
2023-06-06T06:42:10.078Z,6.4
2023-06-06T06:47:54.687Z,6.5
2023-06-06T06:53:41.044Z,6.8
2023-06-06T06:59:25.683Z,6.4
2023-06-06T07:05:10.417Z,7.2
2023-06-06T07:10:55.156Z,5.7
2023-06-06T07:16:39.655Z,6.6
2023-06-06T07:22:23.809Z,11.4
2023-06-06T07:28:08.140Z,9.9
2023-06-06T07:33:52.621Z,11.5
2023-06-06T07:39:36.851Z,9.1
2023-06-06T07:45:21.178Z,9.2
2023-06-06T07:51:05.356Z,9.9
2023-06-06T07:56:49.603Z,11.1
2023-06-06T08:02:35.477Z,9.4
2023-06-06T08:08:19.707Z,10.1
2023-06-06T08:14:03.950Z,10.4
2023-06-06T08:19:48.480Z,10.2
2023-06-06T08:25:32.860Z,10.8
2023-06-06T08:31:17.448Z,9
2023-06-06T08:37:01.901Z,8.2
2023-06-06T08:42:47.519Z,7.7
2023-06-06T08:48:32.773Z,8.3
2023-06-06T08:54:17.142Z,7.4
2023-06-06T09:00:02.409Z,7.3
2023-06-06T09:05:46.936Z,6.5
2023-06-06T09:11:31.170Z,8.6
2023-06-06T09:17:19.148Z,6.8
2023-06-06T09:23:03.716Z,6.7
2023-06-06T09:28:48.012Z,6.7
2023-06-06T09:34:32.326Z,6.9
2023-06-06T09:40:20.057Z,6.6
2023-06-06T09:46:05.228Z,6.6
2023-06-06T09:51:49.885Z,6.5
2023-06-06T09:57:35.049Z,5.8
2023-06-06T10:03:21.233Z,7.2
2023-06-06T10:09:06.091Z,5.1
2023-06-06T10:14:50.555Z,5.3
2023-06-06T10:20:35.342Z,5.1
2023-06-06T10:26:22.047Z,5.4
2023-06-06T10:32:10.136Z,4.9
2023-06-06T10:38:08.590Z,5
2023-06-06T10:43:59.109Z,5.3
2023-06-06T10:49:44.834Z,5.9
2023-06-06T10:55:40.827Z,4.2
2023-06-06T11:01:25.281Z,5.3
2023-06-06T11:07:14.644Z,4.9
2023-06-06T11:12:59.329Z,4.6
2023-06-06T11:18:44.586Z,4.9
2023-06-06T11:24:33.853Z,5
2023-06-06T11:30:19.275Z,4.9
2023-06-06T11:36:04.769Z,4.3
2023-06-06T11:41:50.213Z,3.3
2023-06-06T11:47:40.512Z,3.8
2023-06-06T11:53:36.506Z,3.9
2023-06-06T11:59:21.129Z,3.3
2023-06-06T12:05:08.800Z,3.3
2023-06-06T12:10:53.034Z,3.7
2023-06-06T12:16:37.514Z,4.3
2023-06-06T12:22:26.728Z,4
2023-06-06T12:28:16.842Z,4.2
2023-06-06T12:34:01.820Z,2.9
2023-06-06T12:39:46.595Z,4.1
2023-06-06T12:45:31.598Z,4.5
2023-06-06T12:51:18.365Z,2.7
2023-06-06T12:57:02.810Z,3.1
2023-06-06T13:02:48.157Z,3.1
2023-06-06T13:08:41.208Z,2.6
2023-06-06T13:14:26.097Z,3.8
2023-06-06T13:20:13.501Z,3.1
2023-06-06T13:25:57.942Z,4.1
2023-06-06T13:31:43.226Z,4.1
2023-06-06T13:37:28.472Z,3.5
2023-06-06T13:43:17.477Z,3.4
2023-06-06T13:49:06.835Z,2.5
2023-06-06T13:54:51.100Z,2.6
2023-06-06T14:00:38.562Z,2.4
2023-06-06T14:06:24.187Z,3.4
2023-06-06T14:12:09.241Z,3.5
2023-06-06T14:17:57.963Z,3.5
2023-06-06T14:23:42.598Z,2.5
2023-06-06T14:29:26.936Z,3.4
2023-06-06T14:35:12.664Z,3.4
2023-06-06T14:40:56.934Z,2.5
2023-06-06T14:46:41.624Z,5.9
2023-06-06T14:52:25.892Z,5.9
2023-06-06T14:58:10.134Z,3.2
2023-06-06T15:03:55.174Z,5
2023-06-06T15:09:41.599Z,4.9
2023-06-06T15:15:26.786Z,6.1
2023-06-06T15:21:11.353Z,4.7
2023-06-06T15:26:57.551Z,4.5
2023-06-06T15:32:42.342Z,4.5
2023-06-06T15:38:26.420Z,3.6
2023-06-06T15:44:13.963Z,5.6
2023-06-06T15:49:58.290Z,6.1
2023-06-06T15:55:42.564Z,9.1
2023-06-06T16:01:27.226Z,4.1
2023-06-06T16:07:11.844Z,5.1
2023-06-06T16:12:56.232Z,3.7
2023-06-06T16:18:40.510Z,4.7
2023-06-06T16:24:24.880Z,6.1
2023-06-06T16:30:10.035Z,5.3
2023-06-06T16:35:54.878Z,6.3
2023-06-06T16:41:39.333Z,4.7
2023-06-06T16:47:23.806Z,5.2
2023-06-06T16:53:08.417Z,3.7
2023-06-06T16:58:54.034Z,5.8
2023-06-06T17:04:38.246Z,4
2023-06-06T17:10:22.792Z,5
2023-06-06T17:16:07.493Z,3.9
2023-06-06T17:21:51.814Z,4.6
2023-06-06T17:27:36.144Z,5
2023-06-06T17:33:20.338Z,5.4
2023-06-06T17:39:04.795Z,3.9
2023-06-06T17:44:49.028Z,4.8
2023-06-06T17:50:33.523Z,5.3
2023-06-06T17:56:17.714Z,4.2
2023-06-06T18:02:11.453Z,3.1
2023-06-06T18:07:57.308Z,4.7
2023-06-06T18:13:41.781Z,3.3
2023-06-06T18:19:26.010Z,4.9
2023-06-06T18:25:10.722Z,5.5
2023-06-06T18:30:55.299Z,6.2
2023-06-06T18:36:39.701Z,5.1
2023-06-06T18:42:26.445Z,5
2023-06-06T18:48:11.146Z,5.2
2023-06-06T18:53:55.842Z,5.3
2023-06-06T18:59:40.870Z,5.5
2023-06-06T19:05:25.353Z,4.6
2023-06-06T19:11:10.691Z,4.6
2023-06-06T19:16:55.897Z,3.3
2023-06-06T19:22:58.924Z,7.3
2023-06-06T19:29:26.792Z,4.5
2023-06-06T19:35:40.687Z,4.9
2023-06-06T19:41:56.061Z,5
2023-06-06T19:48:18.340Z,4.9
2023-06-06T19:54:39.448Z,8.7
2023-06-06T20:00:41.089Z,3.1
2023-06-06T20:06:35.855Z,4.7
2023-06-06T20:12:32.170Z,5.2
2023-06-06T20:18:23.298Z,5.6
2023-06-06T20:24:09.293Z,6.2
2023-06-06T20:29:54.116Z,6.6
2023-06-06T20:35:38.282Z,4.1
2023-06-06T20:41:23.177Z,5.7
2023-06-06T20:47:09.388Z,4.8
2023-06-06T20:52:53.968Z,6.5
2023-06-06T20:58:37.958Z,5.1
2023-06-06T21:04:22.146Z,5.8
2023-06-06T21:10:07.995Z,5.8
2023-06-06T21:15:52.364Z,3.9
2023-06-06T21:21:36.281Z,5.1
2023-06-06T21:27:20.320Z,6.4
2023-06-06T21:33:05.004Z,5.9
2023-06-06T21:38:49.269Z,5.4
2023-06-06T21:44:33.296Z,5.7
2023-06-06T21:50:17.444Z,5.4
2023-06-06T21:56:01.543Z,3.9
2023-06-06T22:01:45.931Z,5.9
2023-06-06T22:07:29.988Z,5.2
2023-06-06T22:13:14.013Z,4.9
2023-06-06T22:18:58.347Z,4.4
2023-06-06T22:24:42.674Z,5.1
2023-06-06T22:30:26.710Z,6.8
2023-06-06T22:36:10.967Z,5.4
2023-06-06T22:41:56.024Z,5.4
2023-06-06T22:47:40.165Z,4.9
2023-06-06T22:53:24.221Z,5.3
2023-06-06T22:59:08.258Z,5.1
2023-06-06T23:04:53.343Z,4.2
2023-06-06T23:10:37.363Z,5.7
2023-06-06T23:16:21.693Z,4.3
2023-06-06T23:22:05.764Z,5.1
2023-06-06T23:27:49.972Z,4.6
2023-06-06T23:33:34.111Z,4.2
2023-06-06T23:39:19.986Z,5.4
2023-06-06T23:45:04.066Z,5.4
2023-06-06T23:50:48.000Z,5.2
2023-06-06T23:56:32.004Z,4.7
